Simbury, Connecticut
Current Conditions -  °F | °C
As of 3:16 AM on Monday 22 Dec 2014 (Local Time) from KBDL Reporting Station
Overcast Overcast  
Wind Chill: 29°   Ceiling: 1700
Heat Index: 33°   Visibility: 10mi
Dew Point: 30°   Wind: 5mph
Humidity: 89%   Direction: 320°NW
Pressure: 30.34"   Gusts: NA
Location:  41.8901°N, 72.8259°W
Report Text: KBDL 220816Z 32004KT 10SM BKN017 OVC044 01/M01 A3034 RMK AO2 T00061011 $
Loading
Personal Weather Stations






























Interactive Weather Map New forecast layout! Learn more

10-Day Weather Forecast

Advertisements
Track Severe Weather on mobile